Terminal Aerodrome Forecast
Issued by NWS Springfield, MO

Home | Current Version | Previous Version | Text Only | Print | Product List | Glossary On
Versions: 1 2 3 4 5 6 7 8 9 10 11 12 13 14 15
810
FTUS43 KSGF 050520
TAFSGF
TAF
KSGF 050520Z 0506/0606 21006KT P6SM SKC
     FM051000 22005KT P6SM OVC250
     FM051800 24008KT P6SM OVC250
     FM060000 19005KT P6SM OVC150=

USA.gov is the U.S. government's official web portal to all federal, state and local government web resources and services.